Moss, TN (38575)

1:47 PM CST on February 08, 2016 (GMT -0600)
Pumpkintown | | Change Station
CLOSE
Current Station
Personal Weather Station
Location: Red Boiling Springs, TN
Elevation: 899 ft
Nearby Weather Stations
Active Advisory: Winter Weather Advisory

Elev 899 ft 36.58 °N, 85.91 °W | Updated 54 seconds ago

Overcast
Overcast
37.5 °F
Feels Like 33 °F
N
6.0
Wind Variable Wind from SSW
Gusts 8.0 mph

Today
High -- | Low -- °F
--% Chance of Precip.
Yesterday
High -- | Low -- °F
Precip. -- in
Pressure 29.74 in
Visibility 5.0 miles
Clouds Scattered Clouds 2400 ft
Mostly Cloudy 3500 ft
Overcast 4200 ft
Windchill 33 °F
Dew Point 29 °F
Humidity 72%
Rainfall 0.00 in
Snow Depth Not available.
6:38 AM 5:15 PM
New Moon, 0% visible
METAR KGLW 081930Z AUTO 27003KT 5SM -SN SCT024 BKN035 OVC042 00/00 A2974 RMK AO2 P0001 T00000000
Pressure 29.74 in
Visibility 5.0 miles
Clouds Scattered Clouds 2400 ft
Mostly Cloudy 3500 ft
Overcast 4200 ft
Windchill 33 °F
Dew Point 29 °F
Humidity 72%
Rainfall 0.00 in
Snow Depth Not available.
6:38 AM 5:15 PM
New Moon, 0% visible
METAR KGLW 081930Z AUTO 27003KT 5SM -SN SCT024 BKN035 OVC042 00/00 A2974 RMK AO2 P0001 T00000000

10-Day Weather Forecast

Almanac

Astronomy

Feb. 08, 2016 Rise Set
Actual Time
Civil Twilight
Nautical Twilight
Astronomical Twilight
Moon
Length of Visible Light
Length of Day
Tomorrow will be .
, % of the Moon is Illuminated

Today's Extremes

State Highs State Lows

Community

WunderPhotos

Upload Photos

1,891,499 photos uploaded!

WunderBlog® & News

Nearby

Air Quality

  Air Quality AQ Index Pollutant
Not available.

Snow Depth

Station Depth Elevation

Earthquake Activity

City Distance Mag. Time & Date
Minimum magnitude displayed is 2.5.

Coastal Water Temperatures

Place Temperature

Stations

Nearby Weather Stations

Station Location Temp. Windchill Dew Point Humidity Wind Precip. Elev Updated Type
                   

Watches & Warnings

Winter Weather Advisory
Issued: 1:40 PM CST Feb. 8, 2016 – National Weather Service

... Winter Weather Advisory remains in effect until 6 am CST
Wednesday...

* timing... noon today until 6 am CST Wednesday.

* Main impact... hazardous travel conditions across the Cumberland
Plateau.

* Total snow accumulations... 1 to 2 inches with locally higher
amounts around 3 inches possible.

Precautionary/preparedness actions...

A Winter Weather Advisory for snow means that periods of snow
will cause primarily travel difficulties. Be prepared for snow
covered roads and limited visibilities... and use caution while
driving.